Lord Byron — V7HW7 — position and weather

sailwx.info

Track history (hours):
 
Tides and Currents Weather Stations Pressure Air Temp Water Temp Dewpoint Dewpoint Depression Visibility Wind Speed Wind Dir Waves Ship Positions

Lord Byron

Last reported at 2018-Jun-04 03:56 UTC. Time now 2018-Jun-23 19:38 UTC.
Position N 37°29' E 025°56'.
Warning: this ship's position is 19 days out of date.

Length 225 m; draft 7.3 m.

Type: Cargo ship. MMSI: 338085202.

Date/timePositionNaut miles runAvg speedWind from/ knotsBaromVisibWave heightAir tempDewpointWater temp
2018-Jun-04 03:56N 37°29' E 025°56'612.8
2018-Jun-04 03:30N 37°34' E 025°53'712.7
2018-Jun-04 02:59N 37°41' E 025°51'  
2018-May-31 20:59N 42°33' E 029°39'612.2
2018-May-31 20:30N 42°39' E 029°41'612.1
2018-May-31 20:01N 42°45' E 029°43'612.0
2018-May-31 19:29N 42°51' E 029°45'612.0
2018-May-31 19:00N 42°56' E 029°47'612.1
2018-May-31 18:30N 43°02' E 029°49'612.1
2018-May-31 18:00N 43°08' E 029°52'612.1
2018-May-31 17:30N 43°14' E 029°54'612.0
2018-May-31 17:01N 43°20' E 029°56'612.0
2018-May-31 16:30N 43°26' E 029°59'612.1
2018-May-31 16:01N 43°31' E 030°01'612.1
2018-May-31 15:30N 43°37' E 030°03'612.3
2018-May-31 15:00N 43°43' E 030°05'612.4
2018-May-31 14:30N 43°49' E 030°08'612.6
2018-May-31 14:00N 43°55' E 030°10'612.5
2018-May-31 13:30N 44°01' E 030°13'612.6
2018-May-31 13:00N 44°07' E 030°15'612.5
2018-May-31 12:30N 44°13' E 030°18'612.4
2018-May-31 12:00N 44°19' E 030°20'612.4
2018-May-31 11:30N 44°25' E 030°23'612.4
2018-May-31 11:00N 44°31' E 030°25'612.3
2018-May-31 10:30N 44°37' E 030°27'612.3
2018-May-31 10:00N 44°43' E 030°30'612.2
2018-May-31 09:30N 44°49' E 030°32'612.2
2018-May-31 09:00N 44°55' E 030°35'612.2
2018-May-31 08:30N 45°00' E 030°37'612.2
2018-May-31 08:00N 45°06' E 030°40'612.2
2018-May-31 07:30N 45°12' E 030°42'612.1
2018-May-31 07:00N 45°18' E 030°44'612.1
2018-May-31 06:30N 45°24' E 030°47'612.2
2018-May-31 06:00N 45°29' E 030°49'612.2
2018-May-31 05:30N 45°35' E 030°52'612.1
2018-May-31 05:00N 45°41' E 030°54'612.1
2018-May-31 04:30N 45°47' E 030°57'611.9
2018-May-31 04:00N 45°53' E 030°59'612.2
2018-May-31 03:30N 45°58' E 031°01'612.2
2018-May-31 03:00N 46°04' E 031°04'511.1
2018-May-31 02:30N 46°09' E 031°01'612.0
2018-May-31 02:00N 46°14' E 030°55'510.8
2018-May-31 01:30N 46°19' E 030°55'611.5
2018-May-31 00:59N 46°25' E 030°55'510.3
2018-May-31 00:30N 46°30' E 030°55'4 7.8
2018-May-31 00:00N 46°33' E 030°59'5 9.0
2018-May-30 23:30N 46°35' E 031°05'2 2.9
2018-May-30 22:46N 46°35' E 031°08'0 0.0
2018-May-30 22:19N 46°35' E 031°08'0 0.0
2018-May-30 21:58N 46°35' E 031°08'0 0.0
2018-May-30 21:28N 46°35' E 031°08'0 0.0
2018-May-30 20:52N 46°35' E 031°08'0 0.0
2018-May-30 20:28N 46°35' E 031°08'0 0.0
2018-May-30 19:55N 46°35' E 031°08'0 0.0
2018-May-30 19:25N 46°35' E 031°08'0 0.0
2018-May-30 18:46N 46°35' E 031°08'0 0.0
2018-May-30 18:28N 46°35' E 031°08'0 0.0
2018-May-30 17:55N 46°35' E 031°08'0 0.0
2018-May-30 17:25N 46°35' E 031°08'0 0.0
2018-May-30 16:55N 46°35' E 031°08'0 0.0
2018-May-30 16:25N 46°35' E 031°08'0 0.0
2018-May-30 15:46N 46°35' E 031°08'0 0.0
2018-May-30 15:25N 46°35' E 031°08'0 0.0
2018-May-30 14:55N 46°35' E 031°08'0 0.0
2018-May-30 14:28N 46°35' E 031°08'0 0.0
2018-May-30 13:55N 46°35' E 031°08'0 0.1
2018-May-30 13:28N 46°35' E 031°08'0 0.1
2018-May-30 12:58N 46°35' E 031°08'0 0.1
2018-May-30 12:28N 46°35' E 031°08'0 0.0
2018-May-30 11:46N 46°35' E 031°08'0 0.0
2018-May-30 11:04N 46°35' E 031°08'0 0.0
2018-May-30 10:58N 46°35' E 031°08'0 0.0
2018-May-30 10:10N 46°35' E 031°08'0 0.0
2018-May-30 09:40N 46°35' E 031°08'0 0.0
2018-May-30 09:10N 46°35' E 031°08'0 0.0
2018-May-30 08:49N 46°34' E 031°08'0 0.0
2018-May-30 08:28N 46°34' E 031°08'0 0.0
2018-May-30 07:58N 46°34' E 031°08'0 0.0
2018-May-30 06:52N 46°34' E 031°08'0 0.0
2018-May-30 06:22N 46°34' E 031°08'0 0.0
2018-May-30 05:49N 46°34' E 031°08'0 0.0
2018-May-30 05:28N 46°34' E 031°08'0 0.0
2018-May-30 04:55N 46°34' E 031°08'0 0.0
2018-May-30 04:19N 46°34' E 031°08'0 0.0
2018-May-30 03:16N 46°34' E 031°08'0 0.0
2018-May-30 02:55N 46°34' E 031°08'0 0.0
2018-May-30 02:22N 46°34' E 031°08'0 0.0
2018-May-30 01:49N 46°34' E 031°08'0 0.0
2018-May-30 01:28N 46°34' E 031°08'0 0.0
2018-May-30 00:58N 46°34' E 031°08'0 0.0
2018-May-30 00:13N 46°34' E 031°08'0 0.0
2018-May-29 23:16N 46°34' E 031°08'0 0.0
2018-May-29 22:43N 46°34' E 031°08'0 0.0
2018-May-29 22:10N 46°34' E 031°08'0 0.0
2018-May-29 21:52N 46°34' E 031°08'0 0.0
2018-May-29 20:04N 46°34' E 031°08'0 0.1
2018-May-29 19:58N 46°34' E 031°08'0 0.0
2018-May-29 18:46N 46°34' E 031°08'0 0.0
2018-May-29 18:16N 46°34' E 031°08'0 0.0
2018-May-29 17:52N 46°34' E 031°08'0 0.0
2018-May-29 17:28N 46°34' E 031°08'0 0.0
2018-May-29 16:40N 46°34' E 031°08'0 0.0
2018-May-29 16:13N 46°34' E 031°08'0 0.0
2018-May-29 15:01N 46°34' E 031°08'0 0.0
2018-May-29 14:58N 46°34' E 031°08'0 0.0
2018-May-29 14:25N 46°34' E 031°08'0 0.0
2018-May-29 13:58N 46°34' E 031°08'0 0.0
2018-May-29 13:25N 46°34' E 031°08'0 0.0
2018-May-29 12:58N 46°34' E 031°08'0 0.0
2018-May-29 12:28N 46°34' E 031°08'0 0.0
2018-May-29 11:55N 46°34' E 031°08'0 0.0
2018-May-29 11:25N 46°34' E 031°08'0 0.0
2018-May-29 10:49N 46°34' E 031°08'0 0.0
2018-May-29 10:28N 46°34' E 031°08'0 0.0
2018-May-29 09:58N 46°34' E 031°08'0 0.0
2018-May-29 09:25N 46°34' E 031°08'0 0.0
2018-May-29 08:37N 46°34' E 031°08'0 0.0
2018-May-29 08:22N 46°34' E 031°08'0 0.0
2018-May-29 07:01N 46°34' E 031°08'0 0.0
2018-May-29 06:46N 46°34' E 031°08'0 0.0
2018-May-29 06:13N 46°34' E 031°08'0 0.0
2018-May-29 04:52N 46°34' E 031°08'0 0.0
2018-May-29 03:22N 46°34' E 031°08'0 0.0
2018-May-29 02:13N 46°34' E 031°08'0 0.0
2018-May-29 01:58N 46°34' E 031°08'0 0.0
2018-May-29 00:31N 46°34' E 031°08'0 0.0
2018-May-29 00:25N 46°34' E 031°08'0 0.0
2018-May-28 23:58N 46°34' E 031°08'0 0.0
2018-May-28 23:28N 46°34' E 031°08'0 0.0
2018-May-28 22:49N 46°34' E 031°08'0 0.0
2018-May-28 22:22N 46°34' E 031°08'0 0.0
2018-May-28 21:52N 46°34' E 031°08'0 0.0
2018-May-28 21:16N 46°34' E 031°08'0 0.0
2018-May-28 20:58N 46°34' E 031°08'0 0.0
2018-May-28 20:25N 46°34' E 031°08'0 0.0
2018-May-28 19:49N 46°34' E 031°08'0 0.0
2018-May-28 19:25N 46°34' E 031°08'0 0.0
2018-May-28 15:40N 46°34' E 031°08'0 0.0
2018-May-28 15:13N 46°34' E 031°08'0 0.0
2018-May-28 14:58N 46°34' E 031°08'0 0.0
2018-May-28 12:55N 46°34' E 031°08'0 0.0
2018-May-28 11:37N 46°34' E 031°08'0 0.0
2018-May-28 10:07N 46°34' E 031°08'0 0.0
2018-May-28 09:40N 46°34' E 031°08'0 0.0
2018-May-28 09:28N 46°34' E 031°08'0 0.0
2018-May-28 08:43N 46°34' E 031°08'0 0.0
2018-May-28 08:13N 46°34' E 031°08'0 0.0
2018-May-28 07:52N 46°34' E 031°08'0 0.0
2018-May-28 07:28N 46°34' E 031°08'0 0.0
2018-May-28 06:52N 46°34' E 031°08'0 0.0
2018-May-28 06:28N 46°34' E 031°08'0 0.0
2018-May-28 05:49N 46°34' E 031°08'0 0.0
2018-May-28 05:07N 46°34' E 031°08'0 0.0
2018-May-28 04:37N 46°34' E 031°08'0 0.0
2018-May-28 04:25N 46°34' E 031°08'0 0.0
2018-May-28 03:58N 46°34' E 031°08'0 0.0
2018-May-28 03:25N 46°34' E 031°08'0 0.0
2018-May-28 02:58N 46°34' E 031°08'0 0.0
2018-May-28 02:10N 46°34' E 031°08'0 0.0
2018-May-28 01:55N 46°34' E 031°08'0 0.0
2018-May-28 01:28N 46°34' E 031°08'0 0.0
2018-May-28 00:52N 46°34' E 031°08'0 0.0
2018-May-28 00:22N 46°34' E 031°08'0 0.0
2018-May-27 23:52N 46°34' E 031°08'0 0.0
2018-May-27 23:28N 46°34' E 031°08'0 0.0
2018-May-27 22:58N 46°34' E 031°08'0 0.0
2018-May-27 22:10N 46°34' E 031°08'0 0.0
2018-May-27 21:58N 46°34' E 031°08'0 0.0
2018-May-27 21:25N 46°34' E 031°08'0 0.0
2018-May-27 20:58N 46°34' E 031°08'0 0.0
2018-May-27 20:28N 46°34' E 031°08'0 0.0
2018-May-27 19:49N 46°34' E 031°08'0 0.0
2018-May-27 19:22N 46°34' E 031°08'0 0.0
2018-May-27 18:58N 46°34' E 031°08'0 0.0
2018-May-27 18:19N 46°34' E 031°08'0 0.0
2018-May-27 17:52N 46°34' E 031°08'0 0.0
2018-May-27 17:16N 46°34' E 031°08'0 0.0
2018-May-27 16:46N 46°34' E 031°08'0 0.0
2018-May-27 16:22N 46°34' E 031°08'0 0.0
2018-May-27 15:43N 46°34' E 031°08'0 0.1
2018-May-27 15:28N 46°34' E 031°08'0 0.0
2018-May-27 14:43N 46°34' E 031°08'0 0.0
2018-May-27 14:25N 46°34' E 031°08'0 0.0
2018-May-27 13:52N 46°34' E 031°08'0 0.0
2018-May-27 13:22N 46°34' E 031°08'0 0.0
2018-May-27 12:58N 46°34' E 031°08'0 0.0
2018-May-27 12:22N 46°34' E 031°08'0 0.0
2018-May-27 11:58N 46°34' E 031°08'0 0.0
2018-May-27 11:28N 46°34' E 031°08'0 0.0
2018-May-27 10:58N 46°34' E 031°08'0 0.0
2018-May-27 10:10N 46°34' E 031°08'0 0.0
2018-May-27 09:58N 46°34' E 031°08'0 0.0
2018-May-27 05:13N 46°34' E 031°08'0 0.0
2018-May-27 04:43N 46°34' E 031°08'0 0.0
2018-May-27 04:16N 46°34' E 031°08'0 0.0
2018-May-27 03:04N 46°34' E 031°08'0 0.0
2018-May-27 02:37N 46°34' E 031°08'0 0.0
2018-May-27 02:29N 46°34' E 031°08'0 0.1
2018-May-27 01:57N 46°34' E 031°08'0 0.6
2018-May-27 01:30N 46°34' E 031°08'2 4.6
2018-May-27 01:00N 46°34' E 031°05'3 5.4
2018-May-27 00:30N 46°34' E 031°01'4 6.2
2018-May-26 23:52N 46°38' E 031°01'1 2.2
2018-May-26 23:30N 46°39' E 031°01'0 0.0
2018-May-26 20:34N 46°39' E 031°01'0 0.0
2018-May-26 20:25N 46°39' E 031°01'0 0.0
2018-May-26 19:52N 46°39' E 031°01'0 0.0
2018-May-26 18:31N 46°39' E 031°01'0 0.0
2018-May-26 18:07N 46°39' E 031°01'0 0.0
2018-May-26 17:55N 46°39' E 031°01'0 0.0
2018-May-26 16:52N 46°39' E 031°01'0 0.0
2018-May-26 16:07N 46°39' E 031°01'0 0.0
2018-May-26 13:49N 46°39' E 031°01'0 0.0
2018-May-26 13:19N 46°39' E 031°01'0 0.0
2018-May-26 11:01N 46°39' E 031°01'0 0.0
2018-May-26 10:49N 46°39' E 031°01'0 0.0
2018-May-26 07:01N 46°39' E 031°01'0 0.0
2018-May-26 06:37N 46°39' E 031°01'0 0.0
2018-May-26 05:19N 46°39' E 031°01'0 0.0
2018-May-26 04:25N 46°39' E 031°01'0 0.0
2018-May-26 03:46N 46°39' E 031°01'0 0.0
2018-May-26 03:28N 46°39' E 031°01'0 0.0
2018-May-26 02:55N 46°39' E 031°01'0 0.0
2018-May-26 02:25N 46°39' E 031°01'0 0.0
2018-May-26 01:58N 46°39' E 031°01'0 0.0
2018-May-26 01:22N 46°39' E 031°01'0 0.0
2018-May-26 00:46N 46°39' E 031°01'0 0.0
2018-May-26 00:19N 46°39' E 031°01'0 0.0
2018-May-25 23:55N 46°39' E 031°01'0 0.0
2018-May-25 22:49N 46°39' E 031°01'0 0.0
2018-May-25 21:55N 46°39' E 031°01'0 0.0
2018-May-25 21:04N 46°39' E 031°01'0 0.0
2018-May-25 20:46N 46°39' E 031°01'0 0.0
2018-May-25 19:37N 46°39' E 031°01'0 0.0
2018-May-25 18:25N 46°39' E 031°01'0 0.0
2018-May-25 16:55N 46°39' E 031°01'0 0.0
2018-May-25 16:22N 46°39' E 031°01'0 0.0
2018-May-25 15:55N 46°39' E 031°01'0 0.0
2018-May-25 15:25N 46°39' E 031°01'0 0.0
2018-May-25 14:55N 46°39' E 031°01'0 0.0
2018-May-25 14:04N 46°39' E 031°01'0 0.0
2018-May-25 11:31N 46°39' E 031°01'0 0.0
2018-May-25 09:40N 46°39' E 031°01'0 0.0
2018-May-25 09:25N 46°39' E 031°01'0 0.0
2018-May-25 08:07N 46°39' E 031°01'0 0.0
2018-May-25 07:55N 46°39' E 031°01'0 0.0
2018-May-25 07:19N 46°39' E 031°01'0 0.0
2018-May-25 06:46N 46°39' E 031°01'0 0.0
2018-May-25 06:22N 46°39' E 031°01'0 0.0
2018-May-25 05:46N 46°39' E 031°01'0 0.0
2018-May-25 04:55N 46°39' E 031°01'0 0.0
2018-May-25 04:19N 46°39' E 031°01'  
Track history (hours):
 
Tides and Currents Weather Stations Pressure Air Temp Water Temp Dewpoint Dewpoint Depression Visibility Wind Speed Wind Dir Waves Ship Positions

Lord Byron

Last reported at 2018-Jun-04 03:56 UTC. Time now 2018-Jun-23 19:38 UTC.
Position N 37°29' E 025°56'.
Warning: this ship's position is 19 days out of date.

Length 225 m; draft 7.3 m.

Type: Cargo ship. MMSI: 338085202.

Date/timePositionNaut miles runAvg speedWind from/ knotsBaromVisibWave heightAir tempDewpointWater temp
2018-Jun-04 03:56N 37°29' E 025°56'612.8
2018-Jun-04 03:30N 37°34' E 025°53'712.7
2018-Jun-04 02:59N 37°41' E 025°51'  
2018-May-31 20:59N 42°33' E 029°39'612.2
2018-May-31 20:30N 42°39' E 029°41'612.1
2018-May-31 20:01N 42°45' E 029°43'612.0
2018-May-31 19:29N 42°51' E 029°45'612.0
2018-May-31 19:00N 42°56' E 029°47'612.1
2018-May-31 18:30N 43°02' E 029°49'612.1
2018-May-31 18:00N 43°08' E 029°52'612.1
2018-May-31 17:30N 43°14' E 029°54'612.0
2018-May-31 17:01N 43°20' E 029°56'612.0
2018-May-31 16:30N 43°26' E 029°59'612.1
2018-May-31 16:01N 43°31' E 030°01'612.1
2018-May-31 15:30N 43°37' E 030°03'612.3
2018-May-31 15:00N 43°43' E 030°05'612.4
2018-May-31 14:30N 43°49' E 030°08'612.6
2018-May-31 14:00N 43°55' E 030°10'612.5
2018-May-31 13:30N 44°01' E 030°13'612.6
2018-May-31 13:00N 44°07' E 030°15'612.5
2018-May-31 12:30N 44°13' E 030°18'612.4
2018-May-31 12:00N 44°19' E 030°20'612.4
2018-May-31 11:30N 44°25' E 030°23'612.4
2018-May-31 11:00N 44°31' E 030°25'612.3
2018-May-31 10:30N 44°37' E 030°27'612.3
2018-May-31 10:00N 44°43' E 030°30'612.2
2018-May-31 09:30N 44°49' E 030°32'612.2
2018-May-31 09:00N 44°55' E 030°35'612.2
2018-May-31 08:30N 45°00' E 030°37'612.2
2018-May-31 08:00N 45°06' E 030°40'612.2
2018-May-31 07:30N 45°12' E 030°42'612.1
2018-May-31 07:00N 45°18' E 030°44'612.1
2018-May-31 06:30N 45°24' E 030°47'612.2
2018-May-31 06:00N 45°29' E 030°49'612.2
2018-May-31 05:30N 45°35' E 030°52'612.1
2018-May-31 05:00N 45°41' E 030°54'612.1
2018-May-31 04:30N 45°47' E 030°57'611.9
2018-May-31 04:00N 45°53' E 030°59'612.2
2018-May-31 03:30N 45°58' E 031°01'612.2
2018-May-31 03:00N 46°04' E 031°04'511.1
2018-May-31 02:30N 46°09' E 031°01'612.0
2018-May-31 02:00N 46°14' E 030°55'510.8
2018-May-31 01:30N 46°19' E 030°55'611.5
2018-May-31 00:59N 46°25' E 030°55'510.3
2018-May-31 00:30N 46°30' E 030°55'4 7.8
2018-May-31 00:00N 46°33' E 030°59'5 9.0
2018-May-30 23:30N 46°35' E 031°05'2 2.9
2018-May-30 22:46N 46°35' E 031°08'0 0.0
2018-May-30 22:19N 46°35' E 031°08'0 0.0
2018-May-30 21:58N 46°35' E 031°08'0 0.0
2018-May-30 21:28N 46°35' E 031°08'0 0.0
2018-May-30 20:52N 46°35' E 031°08'0 0.0
2018-May-30 20:28N 46°35' E 031°08'0 0.0
2018-May-30 19:55N 46°35' E 031°08'0 0.0
2018-May-30 19:25N 46°35' E 031°08'0 0.0
2018-May-30 18:46N 46°35' E 031°08'0 0.0
2018-May-30 18:28N 46°35' E 031°08'0 0.0
2018-May-30 17:55N 46°35' E 031°08'0 0.0
2018-May-30 17:25N 46°35' E 031°08'0 0.0
2018-May-30 16:55N 46°35' E 031°08'0 0.0
2018-May-30 16:25N 46°35' E 031°08'0 0.0
2018-May-30 15:46N 46°35' E 031°08'0 0.0
2018-May-30 15:25N 46°35' E 031°08'0 0.0
2018-May-30 14:55N 46°35' E 031°08'0 0.0
2018-May-30 14:28N 46°35' E 031°08'0 0.0
2018-May-30 13:55N 46°35' E 031°08'0 0.1
2018-May-30 13:28N 46°35' E 031°08'0 0.1
2018-May-30 12:58N 46°35' E 031°08'0 0.1
2018-May-30 12:28N 46°35' E 031°08'0 0.0
2018-May-30 11:46N 46°35' E 031°08'0 0.0
2018-May-30 11:04N 46°35' E 031°08'0 0.0
2018-May-30 10:58N 46°35' E 031°08'0 0.0
2018-May-30 10:10N 46°35' E 031°08'0 0.0
2018-May-30 09:40N 46°35' E 031°08'0 0.0
2018-May-30 09:10N 46°35' E 031°08'0 0.0
2018-May-30 08:49N 46°34' E 031°08'0 0.0
2018-May-30 08:28N 46°34' E 031°08'0 0.0
2018-May-30 07:58N 46°34' E 031°08'0 0.0
2018-May-30 06:52N 46°34' E 031°08'0 0.0
2018-May-30 06:22N 46°34' E 031°08'0 0.0
2018-May-30 05:49N 46°34' E 031°08'0 0.0
2018-May-30 05:28N 46°34' E 031°08'0 0.0
2018-May-30 04:55N 46°34' E 031°08'0 0.0
2018-May-30 04:19N 46°34' E 031°08'0 0.0
2018-May-30 03:16N 46°34' E 031°08'0 0.0
2018-May-30 02:55N 46°34' E 031°08'0 0.0
2018-May-30 02:22N 46°34' E 031°08'0 0.0
2018-May-30 01:49N 46°34' E 031°08'0 0.0
2018-May-30 01:28N 46°34' E 031°08'0 0.0
2018-May-30 00:58N 46°34' E 031°08'0 0.0
2018-May-30 00:13N 46°34' E 031°08'0 0.0
2018-May-29 23:16N 46°34' E 031°08'0 0.0
2018-May-29 22:43N 46°34' E 031°08'0 0.0
2018-May-29 22:10N 46°34' E 031°08'0 0.0
2018-May-29 21:52N 46°34' E 031°08'0 0.0
2018-May-29 20:04N 46°34' E 031°08'0 0.1
2018-May-29 19:58N 46°34' E 031°08'0 0.0
2018-May-29 18:46N 46°34' E 031°08'0 0.0
2018-May-29 18:16N 46°34' E 031°08'0 0.0
2018-May-29 17:52N 46°34' E 031°08'0 0.0
2018-May-29 17:28N 46°34' E 031°08'0 0.0
2018-May-29 16:40N 46°34' E 031°08'0 0.0
2018-May-29 16:13N 46°34' E 031°08'0 0.0
2018-May-29 15:01N 46°34' E 031°08'0 0.0
2018-May-29 14:58N 46°34' E 031°08'0 0.0
2018-May-29 14:25N 46°34' E 031°08'0 0.0
2018-May-29 13:58N 46°34' E 031°08'0 0.0
2018-May-29 13:25N 46°34' E 031°08'0 0.0
2018-May-29 12:58N 46°34' E 031°08'0 0.0
2018-May-29 12:28N 46°34' E 031°08'0 0.0
2018-May-29 11:55N 46°34' E 031°08'0 0.0
2018-May-29 11:25N 46°34' E 031°08'0 0.0
2018-May-29 10:49N 46°34' E 031°08'0 0.0
2018-May-29 10:28N 46°34' E 031°08'0 0.0
2018-May-29 09:58N 46°34' E 031°08'0 0.0
2018-May-29 09:25N 46°34' E 031°08'0 0.0
2018-May-29 08:37N 46°34' E 031°08'0 0.0
2018-May-29 08:22N 46°34' E 031°08'0 0.0
2018-May-29 07:01N 46°34' E 031°08'0 0.0
2018-May-29 06:46N 46°34' E 031°08'0 0.0
2018-May-29 06:13N 46°34' E 031°08'0 0.0
2018-May-29 04:52N 46°34' E 031°08'0 0.0
2018-May-29 03:22N 46°34' E 031°08'0 0.0
2018-May-29 02:13N 46°34' E 031°08'0 0.0
2018-May-29 01:58N 46°34' E 031°08'0 0.0
2018-May-29 00:31N 46°34' E 031°08'0 0.0
2018-May-29 00:25N 46°34' E 031°08'0 0.0
2018-May-28 23:58N 46°34' E 031°08'0 0.0
2018-May-28 23:28N 46°34' E 031°08'0 0.0
2018-May-28 22:49N 46°34' E 031°08'0 0.0
2018-May-28 22:22N 46°34' E 031°08'0 0.0
2018-May-28 21:52N 46°34' E 031°08'0 0.0
2018-May-28 21:16N 46°34' E 031°08'0 0.0
2018-May-28 20:58N 46°34' E 031°08'0 0.0
2018-May-28 20:25N 46°34' E 031°08'0 0.0
2018-May-28 19:49N 46°34' E 031°08'0 0.0
2018-May-28 19:25N 46°34' E 031°08'0 0.0
2018-May-28 15:40N 46°34' E 031°08'0 0.0
2018-May-28 15:13N 46°34' E 031°08'0 0.0
2018-May-28 14:58N 46°34' E 031°08'0 0.0
2018-May-28 12:55N 46°34' E 031°08'0 0.0
2018-May-28 11:37N 46°34' E 031°08'0 0.0
2018-May-28 10:07N 46°34' E 031°08'0 0.0
2018-May-28 09:40N 46°34' E 031°08'0 0.0
2018-May-28 09:28N 46°34' E 031°08'0 0.0
2018-May-28 08:43N 46°34' E 031°08'0 0.0
2018-May-28 08:13N 46°34' E 031°08'0 0.0
2018-May-28 07:52N 46°34' E 031°08'0 0.0
2018-May-28 07:28N 46°34' E 031°08'0 0.0
2018-May-28 06:52N 46°34' E 031°08'0 0.0
2018-May-28 06:28N 46°34' E 031°08'0 0.0
2018-May-28 05:49N 46°34' E 031°08'0 0.0
2018-May-28 05:07N 46°34' E 031°08'0 0.0
2018-May-28 04:37N 46°34' E 031°08'0 0.0
2018-May-28 04:25N 46°34' E 031°08'0 0.0
2018-May-28 03:58N 46°34' E 031°08'0 0.0
2018-May-28 03:25N 46°34' E 031°08'0 0.0
2018-May-28 02:58N 46°34' E 031°08'0 0.0
2018-May-28 02:10N 46°34' E 031°08'0 0.0
2018-May-28 01:55N 46°34' E 031°08'0 0.0
2018-May-28 01:28N 46°34' E 031°08'0 0.0
2018-May-28 00:52N 46°34' E 031°08'0 0.0
2018-May-28 00:22N 46°34' E 031°08'0 0.0
2018-May-27 23:52N 46°34' E 031°08'0 0.0
2018-May-27 23:28N 46°34' E 031°08'0 0.0
2018-May-27 22:58N 46°34' E 031°08'0 0.0
2018-May-27 22:10N 46°34' E 031°08'0 0.0
2018-May-27 21:58N 46°34' E 031°08'0 0.0
2018-May-27 21:25N 46°34' E 031°08'0 0.0
2018-May-27 20:58N 46°34' E 031°08'0 0.0
2018-May-27 20:28N 46°34' E 031°08'0 0.0
2018-May-27 19:49N 46°34' E 031°08'0 0.0
2018-May-27 19:22N 46°34' E 031°08'0 0.0
2018-May-27 18:58N 46°34' E 031°08'0 0.0
2018-May-27 18:19N 46°34' E 031°08'0 0.0
2018-May-27 17:52N 46°34' E 031°08'0 0.0
2018-May-27 17:16N 46°34' E 031°08'0 0.0
2018-May-27 16:46N 46°34' E 031°08'0 0.0
2018-May-27 16:22N 46°34' E 031°08'0 0.0
2018-May-27 15:43N 46°34' E 031°08'0 0.1
2018-May-27 15:28N 46°34' E 031°08'0 0.0
2018-May-27 14:43N 46°34' E 031°08'0 0.0
2018-May-27 14:25N 46°34' E 031°08'0 0.0
2018-May-27 13:52N 46°34' E 031°08'0 0.0
2018-May-27 13:22N 46°34' E 031°08'0 0.0
2018-May-27 12:58N 46°34' E 031°08'0 0.0
2018-May-27 12:22N 46°34' E 031°08'0 0.0
2018-May-27 11:58N 46°34' E 031°08'0 0.0
2018-May-27 11:28N 46°34' E 031°08'0 0.0
2018-May-27 10:58N 46°34' E 031°08'0 0.0
2018-May-27 10:10N 46°34' E 031°08'0 0.0
2018-May-27 09:58N 46°34' E 031°08'0 0.0
2018-May-27 05:13N 46°34' E 031°08'0 0.0
2018-May-27 04:43N 46°34' E 031°08'0 0.0
2018-May-27 04:16N 46°34' E 031°08'0 0.0
2018-May-27 03:04N 46°34' E 031°08'0 0.0
2018-May-27 02:37N 46°34' E 031°08'0 0.0
2018-May-27 02:29N 46°34' E 031°08'0 0.1
2018-May-27 01:57N 46°34' E 031°08'0 0.6
2018-May-27 01:30N 46°34' E 031°08'2 4.6
2018-May-27 01:00N 46°34' E 031°05'3 5.4
2018-May-27 00:30N 46°34' E 031°01'4 6.2
2018-May-26 23:52N 46°38' E 031°01'1 2.2
2018-May-26 23:30N 46°39' E 031°01'0 0.0
2018-May-26 20:34N 46°39' E 031°01'0 0.0
2018-May-26 20:25N 46°39' E 031°01'0 0.0
2018-May-26 19:52N 46°39' E 031°01'0 0.0
2018-May-26 18:31N 46°39' E 031°01'0 0.0
2018-May-26 18:07N 46°39' E 031°01'0 0.0
2018-May-26 17:55N 46°39' E 031°01'0 0.0
2018-May-26 16:52N 46°39' E 031°01'0 0.0
2018-May-26 16:07N 46°39' E 031°01'0 0.0
2018-May-26 13:49N 46°39' E 031°01'0 0.0
2018-May-26 13:19N 46°39' E 031°01'0 0.0
2018-May-26 11:01N 46°39' E 031°01'0 0.0
2018-May-26 10:49N 46°39' E 031°01'0 0.0
2018-May-26 07:01N 46°39' E 031°01'0 0.0
2018-May-26 06:37N 46°39' E 031°01'0 0.0
2018-May-26 05:19N 46°39' E 031°01'0 0.0
2018-May-26 04:25N 46°39' E 031°01'0 0.0
2018-May-26 03:46N 46°39' E 031°01'0 0.0
2018-May-26 03:28N 46°39' E 031°01'0 0.0
2018-May-26 02:55N 46°39' E 031°01'0 0.0
2018-May-26 02:25N 46°39' E 031°01'0 0.0
2018-May-26 01:58N 46°39' E 031°01'0 0.0
2018-May-26 01:22N 46°39' E 031°01'0 0.0
2018-May-26 00:46N 46°39' E 031°01'0 0.0
2018-May-26 00:19N 46°39' E 031°01'0 0.0
2018-May-25 23:55N 46°39' E 031°01'0 0.0
2018-May-25 22:49N 46°39' E 031°01'0 0.0
2018-May-25 21:55N 46°39' E 031°01'0 0.0
2018-May-25 21:04N 46°39' E 031°01'0 0.0
2018-May-25 20:46N 46°39' E 031°01'0 0.0
2018-May-25 19:37N 46°39' E 031°01'0 0.0
2018-May-25 18:25N 46°39' E 031°01'0 0.0
2018-May-25 16:55N 46°39' E 031°01'0 0.0
2018-May-25 16:22N 46°39' E 031°01'0 0.0
2018-May-25 15:55N 46°39' E 031°01'0 0.0
2018-May-25 15:25N 46°39' E 031°01'0 0.0
2018-May-25 14:55N 46°39' E 031°01'0 0.0
2018-May-25 14:04N 46°39' E 031°01'0 0.0
2018-May-25 11:31N 46°39' E 031°01'0 0.0
2018-May-25 09:40N 46°39' E 031°01'0 0.0
2018-May-25 09:25N 46°39' E 031°01'0 0.0
2018-May-25 08:07N 46°39' E 031°01'0 0.0
2018-May-25 07:55N 46°39' E 031°01'0 0.0
2018-May-25 07:19N 46°39' E 031°01'0 0.0
2018-May-25 06:46N 46°39' E 031°01'0 0.0
2018-May-25 06:22N 46°39' E 031°01'0 0.0
2018-May-25 05:46N 46°39' E 031°01'0 0.0
2018-May-25 04:55N 46°39' E 031°01'0 0.0
2018-May-25 04:19N 46°39' E 031°01'  

Dump ship's entire track history